createdAt,value
2019-03-23T00:00:41.762Z,59.70
2019-03-23T00:03:13.980Z,52.33
2019-03-23T00:05:46.334Z,33.07
2019-03-23T00:08:18.640Z,39.87
2019-03-23T00:10:50.786Z,41.47
2019-03-23T00:13:23.101Z,40.53
2019-03-23T00:15:55.419Z,40.50
2019-03-23T00:18:27.664Z,40.60
2019-03-23T00:20:59.804Z,43.50
2019-03-23T00:23:32.225Z,42.43
2019-03-23T00:26:04.979Z,38.83
2019-03-23T00:28:37.132Z,40.03
2019-03-23T00:31:09.354Z,38.13
2019-03-23T00:33:42.019Z,37.80
2019-03-23T00:36:14.516Z,36.53
2019-03-23T00:38:46.654Z,36.03
2019-03-23T00:41:18.860Z,34.43
2019-03-23T00:43:51.014Z,35.53
2019-03-23T00:46:23.186Z,38.10
2019-03-23T00:48:55.347Z,36.50
2019-03-23T00:51:27.500Z,33.73
2019-03-23T00:53:59.678Z,36.37
2019-03-23T00:56:31.838Z,36.67
2019-03-23T00:59:03.967Z,35.37
2019-03-23T01:01:36.188Z,42.57
2019-03-23T01:04:08.596Z,47.73
2019-03-23T01:06:51.593Z,43.20
2019-03-23T01:09:14.693Z,47.73
2019-03-23T01:11:46.900Z,46.80
2019-03-23T01:14:19.145Z,45.60
2019-03-23T01:16:51.355Z,43.43
2019-03-23T01:19:23.490Z,41.50
2019-03-23T01:21:55.696Z,39.33
2019-03-23T01:24:27.919Z,35.73
2019-03-23T01:27:00.126Z,38.13
2019-03-23T01:29:32.388Z,40.60
2019-03-23T01:32:04.604Z,36.97
2019-03-23T01:34:36.765Z,38.00
2019-03-23T01:37:09.071Z,38.93
2019-03-23T01:39:41.547Z,40.43
2019-03-23T01:42:13.747Z,41.90
2019-03-23T01:44:45.973Z,38.13
2019-03-23T01:47:18.187Z,36.40
2019-03-23T01:49:50.327Z,34.43
2019-03-23T01:52:22.460Z,33.20
2019-03-23T01:54:54.595Z,34.70
2019-03-23T01:57:26.741Z,30.60
2019-03-23T01:59:58.983Z,32.43
2019-03-23T02:02:31.201Z,33.87
2019-03-23T02:05:03.346Z,32.03
2019-03-23T02:07:35.475Z,34.70
2019-03-23T02:10:08.171Z,37.23
2019-03-23T02:12:40.882Z,34.90
2019-03-23T02:15:14.114Z,34.43
2019-03-23T02:17:46.246Z,33.97
2019-03-23T02:20:18.541Z,40.90
2019-03-23T02:22:50.748Z,45.20
2019-03-23T02:25:22.883Z,63.93
2019-03-23T02:27:55.026Z,56.57
2019-03-23T02:30:27.252Z,44.83
2019-03-23T02:32:59.457Z,36.40
2019-03-23T02:35:31.587Z,30.93
2019-03-23T02:38:03.731Z,31.63
2019-03-23T02:40:35.879Z,31.17
2019-03-23T02:43:08.275Z,30.30
2019-03-23T02:45:40.883Z,30.90
2019-03-23T02:48:13.028Z,32.10
2019-03-23T02:50:45.212Z,30.13
2019-03-23T02:53:17.346Z,29.03
2019-03-23T02:55:49.478Z,30.40
2019-03-23T02:58:21.605Z,33.10
2019-03-23T03:00:54.839Z,31.77
2019-03-23T03:03:26.988Z,31.43
2019-03-23T03:05:59.121Z,31.40
2019-03-23T03:08:31.330Z,31.97
2019-03-23T03:11:03.474Z,31.47
2019-03-23T03:13:35.668Z,32.97
2019-03-23T03:16:07.884Z,34.73
2019-03-23T03:18:40.104Z,61.73
2019-03-23T03:21:14.057Z,36.83
2019-03-23T03:23:46.204Z,38.03
2019-03-23T03:26:18.400Z,32.10
2019-03-23T03:28:50.548Z,32.03
2019-03-23T03:31:22.706Z,32.13
2019-03-23T03:33:54.948Z,27.73
2019-03-23T03:36:29.967Z,29.30
2019-03-23T03:39:00.989Z,26.90
2019-03-23T03:41:34.702Z,28.40
2019-03-23T03:44:06.848Z,27.50
2019-03-23T03:46:39.092Z,27.43
2019-03-23T03:49:12.943Z,26.83
2019-03-23T03:51:45.338Z,26.83
2019-03-23T03:54:17.495Z,27.13
2019-03-23T03:56:49.751Z,28.13
2019-03-23T03:59:21.886Z,28.43
2019-03-23T04:01:54.025Z,28.10
2019-03-23T04:04:26.217Z,26.67
2019-03-23T04:06:58.360Z,25.30
2019-03-23T04:09:30.506Z,26.33
2019-03-23T04:12:02.721Z,25.43
2019-03-23T04:14:34.959Z,26.50
2019-03-23T04:17:07.175Z,25.43
2019-03-23T04:19:39.394Z,25.40
2019-03-23T04:22:12.057Z,27.77
2019-03-23T04:24:44.541Z,26.97
2019-03-23T04:27:16.796Z,27.60
2019-03-23T04:29:48.942Z,29.73
2019-03-23T04:32:21.204Z,30.60
2019-03-23T04:34:53.485Z,29.40
2019-03-23T04:37:25.946Z,31.57
2019-03-23T04:39:58.249Z,30.27
2019-03-23T04:42:30.384Z,28.53
2019-03-23T04:45:02.689Z,29.40
2019-03-23T04:47:34.993Z,29.97
2019-03-23T04:50:07.893Z,29.00
2019-03-23T04:52:40.057Z,34.37
2019-03-23T04:55:12.355Z,33.50
2019-03-23T04:57:44.559Z,30.60
2019-03-23T05:00:16.895Z,32.00
2019-03-23T05:02:49.136Z,32.93
2019-03-23T05:05:21.272Z,34.40
2019-03-23T05:07:53.474Z,35.40
2019-03-23T05:10:25.791Z,29.97
2019-03-23T05:12:57.928Z,27.07
2019-03-23T05:15:30.069Z,27.90
2019-03-23T05:18:02.480Z,27.97
2019-03-23T05:20:34.613Z,31.23
2019-03-23T05:23:06.862Z,30.27
2019-03-23T05:25:39.111Z,30.10
2019-03-23T05:28:11.533Z,30.13
2019-03-23T05:30:43.693Z,30.70
2019-03-23T05:33:15.829Z,35.33
2019-03-23T05:35:47.974Z,35.10
2019-03-23T05:38:20.131Z,34.93
2019-03-23T05:40:52.375Z,32.63
2019-03-23T05:43:24.689Z,34.30
2019-03-23T05:45:57.442Z,37.77
2019-03-23T05:48:29.583Z,37.23
2019-03-23T05:51:01.812Z,36.37
2019-03-23T05:53:34.036Z,36.87
2019-03-23T05:56:06.171Z,35.63
2019-03-23T05:58:38.309Z,38.03
2019-03-23T06:01:10.987Z,38.50
2019-03-23T06:03:43.166Z,37.00
2019-03-23T06:06:15.601Z,39.13
2019-03-23T06:08:55.057Z,38.57
2019-03-23T06:11:21.693Z,43.50
2019-03-23T06:13:53.907Z,50.97
2019-03-23T06:16:26.061Z,69.93
2019-03-23T06:18:58.235Z,57.30
2019-03-23T06:21:30.366Z,56.10
2019-03-23T06:24:02.575Z,44.10
2019-03-23T06:26:34.789Z,41.70
2019-03-23T06:29:06.944Z,34.83
2019-03-23T06:31:39.123Z,39.97
2019-03-23T06:34:11.614Z,35.57
2019-03-23T06:36:43.754Z,33.23
2019-03-23T06:39:15.898Z,34.17
2019-03-23T06:41:48.103Z,33.70
2019-03-23T06:44:20.328Z,32.13
2019-03-23T06:46:53.562Z,33.20
2019-03-23T06:49:26.684Z,33.93
2019-03-23T06:51:58.827Z,35.37
2019-03-23T06:54:30.964Z,36.33
2019-03-23T06:57:03.132Z,37.40
2019-03-23T06:59:35.312Z,35.30
2019-03-23T07:02:07.558Z,36.20
2019-03-23T07:04:39.699Z,36.53
2019-03-23T07:07:12.546Z,38.13
2019-03-23T07:09:45.009Z,38.63
2019-03-23T07:12:17.149Z,36.63
2019-03-23T07:14:49.319Z,40.27
2019-03-23T07:17:21.457Z,40.10
2019-03-23T07:19:53.598Z,39.00
2019-03-23T07:22:25.745Z,39.13
2019-03-23T07:24:57.875Z,41.17
2019-03-23T07:27:30.022Z,40.17
2019-03-23T07:30:03.817Z,41.47
2019-03-23T07:32:36.289Z,39.47
2019-03-23T07:35:09.149Z,42.10
2019-03-23T07:37:43.791Z,41.30
2019-03-23T07:40:16.156Z,42.00
2019-03-23T07:42:49.960Z,41.70
2019-03-23T07:45:22.970Z,43.43
2019-03-23T07:47:55.225Z,42.93
2019-03-23T07:50:27.375Z,41.37
2019-03-23T07:52:59.522Z,41.80
2019-03-23T07:55:31.687Z,45.10
2019-03-23T07:58:03.840Z,42.73
2019-03-23T08:00:36.071Z,42.50
2019-03-23T08:03:08.470Z,42.27
2019-03-23T08:05:41.790Z,44.00
2019-03-23T08:08:15.655Z,42.67
2019-03-23T08:10:49.322Z,43.10
2019-03-23T08:13:23.061Z,42.53
2019-03-23T08:15:56.982Z,44.20
2019-03-23T08:18:30.693Z,42.23
2019-03-23T08:21:03.878Z,39.90
2019-03-23T08:23:37.387Z,42.83
2019-03-23T08:26:12.576Z,41.27
2019-03-23T08:28:47.048Z,41.27
2019-03-23T08:31:19.781Z,41.57
2019-03-23T08:33:52.234Z,40.47
2019-03-23T08:36:24.440Z,43.40
2019-03-23T08:38:57.132Z,41.97
2019-03-23T08:41:29.279Z,43.83
2019-03-23T08:44:02.129Z,41.63
2019-03-23T08:46:35.158Z,41.50
2019-03-23T08:49:07.385Z,39.37
2019-03-23T08:51:40.783Z,41.00
2019-03-23T08:54:13.432Z,37.70
2019-03-23T08:56:45.603Z,41.90
2019-03-23T08:59:18.450Z,41.87
2019-03-23T09:01:51.221Z,43.43
2019-03-23T09:04:23.490Z,41.50
2019-03-23T09:06:55.655Z,41.43
2019-03-23T09:09:27.888Z,43.37
2019-03-23T09:12:00.138Z,42.80
2019-03-23T09:14:32.354Z,40.73
2019-03-23T09:17:05.648Z,42.00
2019-03-23T09:19:38.977Z,42.03
2019-03-23T09:22:11.439Z,40.70
2019-03-23T09:24:47.734Z,41.67
2019-03-23T09:27:22.093Z,42.07
2019-03-23T09:29:56.887Z,41.20
2019-03-23T09:32:31.328Z,41.17
2019-03-23T09:35:04.835Z,42.73
2019-03-23T09:37:38.478Z,40.60
2019-03-23T09:40:11.668Z,39.27
2019-03-23T09:42:44.668Z,40.47
2019-03-23T09:45:17.428Z,40.33
2019-03-23T09:47:50.406Z,41.97
2019-03-23T09:50:22.738Z,40.07
2019-03-23T09:52:55.001Z,39.63
2019-03-23T09:55:28.800Z,41.50
2019-03-23T09:58:02.134Z,38.33
2019-03-23T10:00:34.342Z,41.07
2019-03-23T10:03:06.561Z,40.20
2019-03-23T10:05:38.786Z,41.03
2019-03-23T10:08:11.405Z,38.20
2019-03-23T10:10:43.636Z,42.07
2019-03-23T10:13:15.849Z,42.17
2019-03-23T10:15:48.074Z,40.03
2019-03-23T10:18:20.219Z,40.67
2019-03-23T10:20:52.440Z,40.20
2019-03-23T10:23:24.582Z,41.80
2019-03-23T10:25:56.787Z,42.47
2019-03-23T10:28:29.008Z,41.30
2019-03-23T10:31:01.179Z,42.93
2019-03-23T10:33:33.401Z,42.17
2019-03-23T10:36:05.575Z,43.87
2019-03-23T10:38:39.054Z,42.57
2019-03-23T10:41:12.394Z,40.60
2019-03-23T10:43:45.819Z,38.17
2019-03-23T10:46:17.986Z,40.07
2019-03-23T10:48:50.190Z,40.07
2019-03-23T10:51:22.352Z,38.90
2019-03-23T10:53:55.389Z,38.97
2019-03-23T10:56:27.724Z,40.87
2019-03-23T10:58:59.964Z,41.27
2019-03-23T11:01:32.174Z,40.23
2019-03-23T11:04:04.423Z,42.17
2019-03-23T11:06:36.779Z,46.97
2019-03-23T11:09:09.083Z,44.60
2019-03-23T11:11:41.687Z,39.53
2019-03-23T11:14:14.702Z,35.13
2019-03-23T11:16:48.697Z,33.90
2019-03-23T11:19:20.866Z,40.93
2019-03-23T11:21:53.085Z,35.87
2019-03-23T11:24:25.263Z,35.07
2019-03-23T11:26:57.486Z,41.10
2019-03-23T11:29:29.714Z,43.57
2019-03-23T11:32:01.983Z,42.43
2019-03-23T11:34:34.204Z,35.80
2019-03-23T11:37:06.498Z,37.37
2019-03-23T11:39:38.928Z,36.27
2019-03-23T11:42:11.162Z,35.83
2019-03-23T11:44:44.453Z,36.13
2019-03-23T11:47:16.627Z,33.30
2019-03-23T11:49:51.094Z,37.03
2019-03-23T11:52:24.373Z,34.20
2019-03-23T11:54:56.552Z,31.97
2019-03-23T11:57:29.077Z,31.80
2019-03-23T12:00:01.391Z,33.40
2019-03-23T12:02:33.877Z,33.00
2019-03-23T12:05:07.644Z,32.75
2019-03-23T12:07:43.163Z,34.33
2019-03-23T12:10:15.781Z,32.88
2019-03-23T12:12:47.967Z,29.57
2019-03-23T12:15:20.160Z,31.97
2019-03-23T12:17:52.693Z,32.28
2019-03-23T12:20:24.801Z,31.50
2019-03-23T12:22:56.978Z,30.82
2019-03-23T12:25:29.178Z,28.30
2019-03-23T12:28:01.411Z,28.37
2019-03-23T12:30:34.948Z,29.73
2019-03-23T12:33:07.895Z,29.30
2019-03-23T12:35:45.370Z,29.13
2019-03-23T12:38:19.067Z,29.70
2019-03-23T12:40:51.349Z,27.23
2019-03-23T12:43:25.098Z,30.10
2019-03-23T12:45:58.930Z,28.07
2019-03-23T12:48:31.577Z,29.33
2019-03-23T12:51:03.931Z,29.43
2019-03-23T12:53:36.079Z,28.27
2019-03-23T12:56:08.300Z,28.10
2019-03-23T12:58:40.542Z,29.10
2019-03-23T13:01:12.971Z,29.90
2019-03-23T13:03:45.161Z,29.67
2019-03-23T13:06:17.299Z,30.60
2019-03-23T13:08:49.552Z,29.30
2019-03-23T13:11:24.635Z,28.07
2019-03-23T13:13:57.299Z,20.50
2019-03-23T13:16:29.873Z,18.50
2019-03-23T13:19:02.502Z,18.80
2019-03-23T13:21:34.863Z,20.83
2019-03-23T13:24:07.480Z,20.80
2019-03-23T13:26:40.145Z,21.93
2019-03-23T13:29:13.442Z,20.97
2019-03-23T13:31:46.094Z,21.37
2019-03-23T13:34:18.584Z,21.17
2019-03-23T13:36:55.457Z,21.50
2019-03-23T13:39:28.335Z,23.20
2019-03-23T13:42:03.096Z,20.27
2019-03-23T13:44:36.284Z,21.77
2019-03-23T13:47:11.725Z,21.37
2019-03-23T13:49:46.027Z,21.00
2019-03-23T13:52:23.089Z,21.00
2019-03-23T13:54:59.892Z,21.53
2019-03-23T13:57:34.046Z,22.60
2019-03-23T14:00:07.617Z,21.70
2019-03-23T14:02:40.474Z,19.63
2019-03-23T14:05:16.309Z,20.43
2019-03-23T14:07:47.716Z,19.10
2019-03-23T14:10:21.381Z,21.67
2019-03-23T14:12:54.934Z,19.33
2019-03-23T14:15:28.740Z,20.03
2019-03-23T14:18:01.526Z,17.53
2019-03-23T14:20:34.355Z,15.83
2019-03-23T14:23:07.025Z,22.53
2019-03-23T14:25:39.430Z,18.70
2019-03-23T14:28:12.416Z,14.53
2019-03-23T14:30:45.174Z,16.57
2019-03-23T14:33:17.991Z,15.43
2019-03-23T14:35:50.854Z,19.53
2019-03-23T14:38:23.177Z,17.30
2019-03-23T14:40:55.496Z,16.10
2019-03-23T14:43:27.843Z,16.57
2019-03-23T14:46:02.883Z,14.77
2019-03-23T14:48:35.221Z,14.20
2019-03-23T14:51:07.768Z,13.20
2019-03-23T14:53:40.689Z,17.63
2019-03-23T14:56:13.298Z,18.23
2019-03-23T14:58:46.018Z,17.80
2019-03-23T15:01:18.261Z,13.20
2019-03-23T15:03:50.589Z,13.37
2019-03-23T15:06:23.281Z,12.77
2019-03-23T15:08:55.940Z,12.03
2019-03-23T15:11:29.662Z,10.90
2019-03-23T15:14:01.978Z,9.93
2019-03-23T15:16:34.141Z,10.13
2019-03-23T15:19:06.597Z,12.30
2019-03-23T15:21:38.918Z,11.57
2019-03-23T15:24:11.324Z,9.67
2019-03-23T15:26:43.769Z,8.07
2019-03-23T15:29:16.225Z,8.83
2019-03-23T15:31:50.023Z,10.27
2019-03-23T15:34:22.825Z,14.77
2019-03-23T15:36:55.171Z,14.37
2019-03-23T15:39:27.495Z,13.90
2019-03-23T15:42:00.211Z,13.83
2019-03-23T15:44:32.732Z,12.55
2019-03-23T15:47:05.311Z,12.93
2019-03-23T15:49:38.049Z,21.43
2019-03-23T15:52:11.573Z,16.57
2019-03-23T15:54:44.921Z,22.20
2019-03-23T15:57:17.517Z,17.37
2019-03-23T15:59:51.310Z,15.20
2019-03-23T16:02:24.210Z,17.30
2019-03-23T16:04:56.695Z,23.70
2019-03-23T16:07:29.830Z,19.97
2019-03-23T16:10:02.241Z,16.80
2019-03-23T16:12:37.483Z,19.03
2019-03-23T16:15:10.050Z,12.87
2019-03-23T16:17:42.377Z,12.00
2019-03-23T16:20:14.535Z,19.87
2019-03-23T16:22:46.754Z,18.90
2019-03-23T16:25:18.901Z,46.30
2019-03-23T16:27:51.116Z,62.07
2019-03-23T16:30:33.216Z,31.17
2019-03-23T16:33:05.499Z,30.90
2019-03-23T16:35:37.726Z,23.37
2019-03-23T16:38:10.587Z,29.43
2019-03-23T16:40:43.038Z,31.50
2019-03-23T16:43:15.256Z,37.77
2019-03-23T16:45:48.944Z,42.57
2019-03-23T16:48:21.210Z,47.07
2019-03-23T16:50:53.360Z,43.97
2019-03-23T16:53:26.319Z,52.63
2019-03-23T16:56:02.209Z,49.57
2019-03-23T16:58:35.737Z,48.03
2019-03-23T17:01:10.542Z,45.73
2019-03-23T17:03:43.853Z,49.10
2019-03-23T17:06:17.742Z,48.23
2019-03-23T17:08:50.834Z,48.37
2019-03-23T17:11:23.074Z,50.50
2019-03-23T17:13:55.256Z,49.90
2019-03-23T17:16:27.826Z,51.73
2019-03-23T17:19:00.541Z,106.83
2019-03-23T17:21:35.225Z,66.17
2019-03-23T17:24:08.086Z,52.17
2019-03-23T17:26:41.653Z,49.20
2019-03-23T17:29:16.856Z,57.97
2019-03-23T17:31:49.713Z,56.63
2019-03-23T17:34:22.265Z,47.20
2019-03-23T17:36:55.761Z,46.63
2019-03-23T17:39:28.313Z,50.87
2019-03-23T17:42:03.606Z,50.53
2019-03-23T17:44:36.133Z,46.70
2019-03-23T17:47:08.283Z,51.50
2019-03-23T17:49:40.964Z,50.97
2019-03-23T17:52:13.686Z,53.23
2019-03-23T17:54:46.151Z,59.37
2019-03-23T17:57:19.377Z,80.70
2019-03-23T17:59:51.532Z,72.27
2019-03-23T18:02:23.771Z,72.80
2019-03-23T18:04:56.344Z,52.83
2019-03-23T18:07:29.789Z,92.83
2019-03-23T18:10:05.814Z,96.07
2019-03-23T18:12:39.935Z,109.00
2019-03-23T18:15:14.742Z,68.27
2019-03-23T18:17:51.133Z,50.40
2019-03-23T18:20:24.718Z,42.03
2019-03-23T18:23:01.598Z,43.80
2019-03-23T18:25:35.443Z,45.57
2019-03-23T18:28:08.075Z,44.47
2019-03-23T18:30:42.171Z,49.37
2019-03-23T18:33:14.398Z,43.10
2019-03-23T18:35:47.623Z,35.50
2019-03-23T18:38:20.565Z,35.80
2019-03-23T18:40:54.566Z,39.43
2019-03-23T18:43:28.070Z,49.60
2019-03-23T18:46:00.831Z,32.70
2019-03-23T18:48:33.898Z,36.17
2019-03-23T18:51:07.148Z,39.83
2019-03-23T18:53:40.118Z,33.10
2019-03-23T18:56:14.930Z,48.60
2019-03-23T18:58:47.228Z,34.77
2019-03-23T19:01:20.093Z,36.87
2019-03-23T19:03:52.432Z,32.53
2019-03-23T19:06:24.866Z,28.13
2019-03-23T19:08:57.093Z,30.43
2019-03-23T19:11:30.231Z,31.03
2019-03-23T19:14:02.499Z,32.33
2019-03-23T19:16:34.741Z,37.97
2019-03-23T19:19:09.651Z,33.70
2019-03-23T19:21:42.688Z,32.57
2019-03-23T19:24:15.486Z,30.07
2019-03-23T19:26:48.268Z,28.80
2019-03-23T19:29:21.198Z,29.27
2019-03-23T19:31:54.891Z,31.13
2019-03-23T19:34:27.480Z,32.77
2019-03-23T19:37:00.279Z,39.30
2019-03-23T19:39:32.517Z,47.87
2019-03-23T19:42:05.464Z,77.63
2019-03-23T19:44:38.409Z,49.30
2019-03-23T19:47:11.142Z,52.53
2019-03-23T19:49:44.169Z,55.90
2019-03-23T19:52:16.346Z,46.03
2019-03-23T19:54:48.586Z,42.57
2019-03-23T19:57:20.744Z,42.83
2019-03-23T19:59:52.911Z,37.97
2019-03-23T20:02:25.059Z,38.20
2019-03-23T20:04:57.232Z,37.07
2019-03-23T20:07:33.299Z,33.30
2019-03-23T20:10:03.419Z,49.57
2019-03-23T20:12:35.671Z,43.53
2019-03-23T20:15:08.096Z,37.33
2019-03-23T20:17:40.463Z,34.97
2019-03-23T20:20:13.115Z,41.33
2019-03-23T20:22:45.274Z,75.47
2019-03-23T20:25:17.502Z,42.40
2019-03-23T20:27:49.765Z,35.23
2019-03-23T20:30:22.007Z,46.97
2019-03-23T20:32:54.239Z,37.30
2019-03-23T20:35:26.469Z,42.13
2019-03-23T20:37:58.706Z,49.27
2019-03-23T20:40:30.949Z,41.03
2019-03-23T20:43:03.186Z,34.80
2019-03-23T20:45:35.394Z,51.17
2019-03-23T20:48:07.611Z,35.03
2019-03-23T20:50:40.232Z,28.80
2019-03-23T20:53:13.991Z,26.27
2019-03-23T20:55:46.283Z,25.43
2019-03-23T20:58:18.622Z,26.13
2019-03-23T21:00:50.881Z,25.50
2019-03-23T21:03:23.103Z,24.93
2019-03-23T21:05:55.324Z,31.93
2019-03-23T21:08:27.537Z,23.23
2019-03-23T21:10:59.703Z,21.47
2019-03-23T21:13:31.849Z,23.87
2019-03-23T21:16:04.029Z,20.47
2019-03-23T21:18:36.250Z,26.87
2019-03-23T21:21:09.685Z,22.23
2019-03-23T21:23:43.669Z,19.67
2019-03-23T21:26:16.124Z,22.63
2019-03-23T21:28:49.092Z,24.57
2019-03-23T21:31:21.727Z,21.57
2019-03-23T21:33:53.984Z,20.00
2019-03-23T21:36:26.717Z,20.37
2019-03-23T21:38:59.029Z,18.23
2019-03-23T21:41:31.160Z,33.33
2019-03-23T21:44:05.224Z,27.43
2019-03-23T21:46:37.824Z,15.43
2019-03-23T21:49:10.634Z,15.97
2019-03-23T21:51:43.455Z,16.23
2019-03-23T21:54:18.623Z,17.00
2019-03-23T21:56:51.545Z,14.23
2019-03-23T21:59:25.481Z,15.73
2019-03-23T22:01:57.874Z,14.57
2019-03-23T22:04:31.073Z,14.83
2019-03-23T22:07:03.331Z,14.47
2019-03-23T22:09:35.663Z,13.97
2019-03-23T22:12:09.045Z,12.80
2019-03-23T22:14:42.141Z,13.10
2019-03-23T22:17:14.583Z,13.03
2019-03-23T22:19:46.984Z,12.67
2019-03-23T22:22:19.120Z,22.27
2019-03-23T22:24:51.263Z,28.57
2019-03-23T22:27:23.407Z,35.00
2019-03-23T22:29:55.698Z,26.53
2019-03-23T22:32:27.907Z,20.07
2019-03-23T22:35:00.356Z,27.60
2019-03-23T22:37:32.660Z,17.10
2019-03-23T22:40:05.147Z,15.30
2019-03-23T22:42:37.381Z,15.37
2019-03-23T22:45:09.652Z,14.53
2019-03-23T22:47:41.869Z,14.97
2019-03-23T22:50:14.208Z,17.77
2019-03-23T22:52:46.413Z,16.43
2019-03-23T22:55:18.556Z,19.07
2019-03-23T22:57:50.693Z,17.20
2019-03-23T23:00:33.466Z,15.00
2019-03-23T23:03:07.218Z,16.40
2019-03-23T23:05:39.439Z,32.53
2019-03-23T23:08:11.668Z,27.53
2019-03-23T23:10:44.772Z,27.93
2019-03-23T23:13:17.176Z,32.47
2019-03-23T23:15:49.360Z,25.17
2019-03-23T23:18:21.563Z,28.23
2019-03-23T23:20:53.707Z,22.53
2019-03-23T23:23:25.930Z,27.00
2019-03-23T23:25:59.289Z,27.50
2019-03-23T23:28:31.497Z,23.53
2019-03-23T23:31:03.728Z,27.83
2019-03-23T23:33:35.944Z,27.70
2019-03-23T23:36:08.159Z,32.23
2019-03-23T23:38:40.471Z,24.73
2019-03-23T23:41:12.692Z,18.30
2019-03-23T23:43:44.889Z,14.67
2019-03-23T23:46:17.120Z,18.77
2019-03-23T23:48:51.460Z,17.87
2019-03-23T23:51:23.194Z,13.20
2019-03-23T23:53:55.441Z,14.17
2019-03-23T23:56:27.609Z,27.37
2019-03-23T23:58:59.960Z,55.80
